sensor_id;sensor_type;location;lat;lon;timestamp;P1;durP1;ratioP1;P2;durP2;ratioP2
22421;SDS011;11378;51.642;7.668;2022-12-04T00:00:24;9.65;;;6.50;;
22421;SDS011;11378;51.642;7.668;2022-12-04T00:02:51;10.02;;;6.60;;
22421;SDS011;11378;51.642;7.668;2022-12-04T00:05:17;10.48;;;6.80;;
22421;SDS011;11378;51.642;7.668;2022-12-04T00:07:44;10.00;;;6.28;;
22421;SDS011;11378;51.642;7.668;2022-12-04T00:10:10;9.60;;;6.22;;
22421;SDS011;11378;51.642;7.668;2022-12-04T00:12:36;12.65;;;6.60;;
22421;SDS011;11378;51.642;7.668;2022-12-04T00:15:03;11.15;;;6.40;;
22421;SDS011;11378;51.642;7.668;2022-12-04T00:17:29;9.85;;;6.43;;
22421;SDS011;11378;51.642;7.668;2022-12-04T00:19:56;8.85;;;6.45;;
22421;SDS011;11378;51.642;7.668;2022-12-04T00:22:22;10.07;;;6.30;;
22421;SDS011;11378;51.642;7.668;2022-12-04T00:24:49;9.68;;;6.38;;
22421;SDS011;11378;51.642;7.668;2022-12-04T00:27:15;9.23;;;5.93;;
22421;SDS011;11378;51.642;7.668;2022-12-04T00:29:41;9.48;;;6.18;;
22421;SDS011;11378;51.642;7.668;2022-12-04T00:32:08;8.60;;;6.10;;
22421;SDS011;11378;51.642;7.668;2022-12-04T00:34:34;9.18;;;6.22;;
22421;SDS011;11378;51.642;7.668;2022-12-04T00:37:01;9.85;;;6.55;;
22421;SDS011;11378;51.642;7.668;2022-12-04T00:39:27;9.10;;;6.20;;
22421;SDS011;11378;51.642;7.668;2022-12-04T00:41:53;9.02;;;6.10;;
22421;SDS011;11378;51.642;7.668;2022-12-04T00:44:20;9.45;;;5.93;;
22421;SDS011;11378;51.642;7.668;2022-12-04T00:46:46;9.45;;;6.32;;
22421;SDS011;11378;51.642;7.668;2022-12-04T00:49:13;9.70;;;6.28;;
22421;SDS011;11378;51.642;7.668;2022-12-04T00:51:39;9.13;;;6.38;;
22421;SDS011;11378;51.642;7.668;2022-12-04T00:54:05;10.55;;;6.80;;
22421;SDS011;11378;51.642;7.668;2022-12-04T00:56:32;9.77;;;6.47;;
22421;SDS011;11378;51.642;7.668;2022-12-04T00:58:58;9.43;;;6.25;;
22421;SDS011;11378;51.642;7.668;2022-12-04T01:01:26;10.32;;;6.30;;
22421;SDS011;11378;51.642;7.668;2022-12-04T01:03:53;10.52;;;6.57;;
22421;SDS011;11378;51.642;7.668;2022-12-04T01:06:21;10.40;;;6.13;;
22421;SDS011;11378;51.642;7.668;2022-12-04T01:08:48;9.90;;;6.38;;
22421;SDS011;11378;51.642;7.668;2022-12-04T01:11:15;7.95;;;5.78;;
22421;SDS011;11378;51.642;7.668;2022-12-04T01:13:42;10.27;;;6.40;;
22421;SDS011;11378;51.642;7.668;2022-12-04T01:16:14;9.20;;;6.07;;
22421;SDS011;11378;51.642;7.668;2022-12-04T01:18:40;10.00;;;5.97;;
22421;SDS011;11378;51.642;7.668;2022-12-04T01:21:07;9.77;;;6.00;;
22421;SDS011;11378;51.642;7.668;2022-12-04T01:23:33;9.25;;;5.88;;
22421;SDS011;11378;51.642;7.668;2022-12-04T01:26:00;8.98;;;6.10;;
22421;SDS011;11378;51.642;7.668;2022-12-04T01:28:26;10.48;;;6.30;;
22421;SDS011;11378;51.642;7.668;2022-12-04T01:30:59;9.18;;;6.15;;
22421;SDS011;11378;51.642;7.668;2022-12-04T01:33:26;8.65;;;5.68;;
22421;SDS011;11378;51.642;7.668;2022-12-04T01:35:53;8.25;;;5.80;;
22421;SDS011;11378;51.642;7.668;2022-12-04T01:38:20;8.73;;;6.25;;
22421;SDS011;11378;51.642;7.668;2022-12-04T01:40:47;8.00;;;5.35;;
22421;SDS011;11378;51.642;7.668;2022-12-04T01:43:13;9.38;;;6.07;;
22421;SDS011;11378;51.642;7.668;2022-12-04T01:45:41;7.80;;;5.65;;
22421;SDS011;11378;51.642;7.668;2022-12-04T01:50:36;8.53;;;5.80;;
22421;SDS011;11378;51.642;7.668;2022-12-04T01:53:03;10.15;;;6.45;;
22421;SDS011;11378;51.642;7.668;2022-12-04T01:55:29;7.72;;;5.47;;
22421;SDS011;11378;51.642;7.668;2022-12-04T01:57:56;8.43;;;5.70;;
22421;SDS011;11378;51.642;7.668;2022-12-04T02:00:23;8.13;;;5.80;;
22421;SDS011;11378;51.642;7.668;2022-12-04T02:02:49;8.27;;;5.90;;
22421;SDS011;11378;51.642;7.668;2022-12-04T02:05:17;7.35;;;5.28;;
22421;SDS011;11378;51.642;7.668;2022-12-04T02:07:44;9.10;;;5.85;;
22421;SDS011;11378;51.642;7.668;2022-12-04T02:10:12;9.05;;;5.60;;
22421;SDS011;11378;51.642;7.668;2022-12-04T02:13:02;8.10;;;5.57;;
22421;SDS011;11378;51.642;7.668;2022-12-04T02:20:48;9.18;;;5.70;;
22421;SDS011;11378;51.642;7.668;2022-12-04T02:28:33;9.52;;;6.15;;
22421;SDS011;11378;51.642;7.668;2022-12-04T02:31:01;7.93;;;5.50;;
22421;SDS011;11378;51.642;7.668;2022-12-04T02:33:38;8.15;;;5.13;;
22421;SDS011;11378;51.642;7.668;2022-12-04T02:36:12;9.15;;;5.40;;
22421;SDS011;11378;51.642;7.668;2022-12-04T02:38:43;8.65;;;5.55;;
22421;SDS011;11378;51.642;7.668;2022-12-04T02:41:14;8.18;;;5.45;;
22421;SDS011;11378;51.642;7.668;2022-12-04T02:43:42;8.25;;;5.72;;
22421;SDS011;11378;51.642;7.668;2022-12-04T02:48:37;6.97;;;5.00;;
22421;SDS011;11378;51.642;7.668;2022-12-04T02:51:05;8.63;;;5.30;;
22421;SDS011;11378;51.642;7.668;2022-12-04T02:53:34;8.10;;;5.53;;
22421;SDS011;11378;51.642;7.668;2022-12-04T02:56:04;8.30;;;5.47;;
22421;SDS011;11378;51.642;7.668;2022-12-04T02:58:42;7.75;;;5.60;;
22421;SDS011;11378;51.642;7.668;2022-12-04T03:01:10;7.80;;;5.30;;
22421;SDS011;11378;51.642;7.668;2022-12-04T03:03:56;7.85;;;5.40;;
22421;SDS011;11378;51.642;7.668;2022-12-04T03:06:25;7.55;;;5.05;;
22421;SDS011;11378;51.642;7.668;2022-12-04T03:09:06;7.68;;;5.40;;
22421;SDS011;11378;51.642;7.668;2022-12-04T03:11:33;8.30;;;5.35;;
22421;SDS011;11378;51.642;7.668;2022-12-04T03:14:06;7.93;;;5.38;;
22421;SDS011;11378;51.642;7.668;2022-12-04T03:16:35;6.45;;;4.93;;
22421;SDS011;11378;51.642;7.668;2022-12-04T03:21:40;7.20;;;5.07;;
22421;SDS011;11378;51.642;7.668;2022-12-04T03:26:45;8.90;;;5.35;;
22421;SDS011;11378;51.642;7.668;2022-12-04T03:34:28;6.78;;;5.13;;
22421;SDS011;11378;51.642;7.668;2022-12-04T03:36:59;8.40;;;5.05;;
22421;SDS011;11378;51.642;7.668;2022-12-04T03:39:36;8.85;;;5.00;;
22421;SDS011;11378;51.642;7.668;2022-12-04T03:44:48;7.25;;;4.93;;
22421;SDS011;11378;51.642;7.668;2022-12-04T03:47:19;8.07;;;5.45;;
22421;SDS011;11378;51.642;7.668;2022-12-04T03:49:51;5.50;;;3.90;;
22421;SDS011;11378;51.642;7.668;2022-12-04T03:52:26;6.93;;;4.68;;
22421;SDS011;11378;51.642;7.668;2022-12-04T03:55:04;9.10;;;5.28;;
22421;SDS011;11378;51.642;7.668;2022-12-04T03:57:32;7.70;;;5.18;;
22421;SDS011;11378;51.642;7.668;2022-12-04T04:00:04;7.45;;;5.25;;
22421;SDS011;11378;51.642;7.668;2022-12-04T04:02:32;6.83;;;4.87;;
22421;SDS011;11378;51.642;7.668;2022-12-04T04:04:59;6.93;;;4.72;;
22421;SDS011;11378;51.642;7.668;2022-12-04T04:07:48;7.47;;;5.03;;
22421;SDS011;11378;51.642;7.668;2022-12-04T04:10:14;8.07;;;4.97;;
22421;SDS011;11378;51.642;7.668;2022-12-04T04:12:43;6.72;;;5.13;;
22421;SDS011;11378;51.642;7.668;2022-12-04T04:18:16;6.10;;;4.30;;
22421;SDS011;11378;51.642;7.668;2022-12-04T04:21:01;5.80;;;4.18;;
22421;SDS011;11378;51.642;7.668;2022-12-04T04:23:48;6.85;;;4.43;;
22421;SDS011;11378;51.642;7.668;2022-12-04T04:26:35;7.57;;;4.82;;
22421;SDS011;11378;51.642;7.668;2022-12-04T04:29:03;6.43;;;4.78;;
22421;SDS011;11378;51.642;7.668;2022-12-04T04:31:37;6.50;;;4.63;;
22421;SDS011;11378;51.642;7.668;2022-12-04T04:36:40;7.88;;;4.88;;
22421;SDS011;11378;51.642;7.668;2022-12-04T04:39:13;7.05;;;4.55;;
22421;SDS011;11378;51.642;7.668;2022-12-04T04:41:43;6.63;;;4.47;;
22421;SDS011;11378;51.642;7.668;2022-12-04T04:46:57;6.70;;;4.28;;
22421;SDS011;11378;51.642;7.668;2022-12-04T04:49:25;7.45;;;4.93;;
22421;SDS011;11378;51.642;7.668;2022-12-04T04:51:54;6.93;;;5.00;;
22421;SDS011;11378;51.642;7.668;2022-12-04T04:54:21;7.53;;;5.13;;
22421;SDS011;11378;51.642;7.668;2022-12-04T04:56:48;6.95;;;4.70;;
22421;SDS011;11378;51.642;7.668;2022-12-04T04:59:14;7.30;;;4.78;;
22421;SDS011;11378;51.642;7.668;2022-12-04T05:01:42;7.22;;;4.82;;
22421;SDS011;11378;51.642;7.668;2022-12-04T05:04:09;7.25;;;4.90;;
22421;SDS011;11378;51.642;7.668;2022-12-04T05:06:36;6.15;;;4.28;;
22421;SDS011;11378;51.642;7.668;2022-12-04T05:09:02;6.90;;;4.63;;
22421;SDS011;11378;51.642;7.668;2022-12-04T05:11:29;8.10;;;5.00;;
22421;SDS011;11378;51.642;7.668;2022-12-04T05:13:55;6.80;;;5.10;;
22421;SDS011;11378;51.642;7.668;2022-12-04T05:16:21;6.13;;;4.53;;
22421;SDS011;11378;51.642;7.668;2022-12-04T05:18:48;6.57;;;4.38;;
22421;SDS011;11378;51.642;7.668;2022-12-04T05:21:33;5.93;;;4.60;;
22421;SDS011;11378;51.642;7.668;2022-12-04T05:24:00;6.10;;;4.32;;
22421;SDS011;11378;51.642;7.668;2022-12-04T05:26:26;6.13;;;4.47;;
22421;SDS011;11378;51.642;7.668;2022-12-04T05:28:53;6.68;;;4.75;;
22421;SDS011;11378;51.642;7.668;2022-12-04T05:31:19;6.88;;;4.65;;
22421;SDS011;11378;51.642;7.668;2022-12-04T05:33:46;5.78;;;4.13;;
22421;SDS011;11378;51.642;7.668;2022-12-04T05:36:12;6.90;;;4.43;;
22421;SDS011;11378;51.642;7.668;2022-12-04T05:38:38;5.68;;;4.20;;
22421;SDS011;11378;51.642;7.668;2022-12-04T05:41:05;6.38;;;4.40;;
22421;SDS011;11378;51.642;7.668;2022-12-04T05:43:31;5.82;;;4.25;;
22421;SDS011;11378;51.642;7.668;2022-12-04T05:46:04;7.25;;;4.90;;
22421;SDS011;11378;51.642;7.668;2022-12-04T05:48:31;5.80;;;4.03;;
22421;SDS011;11378;51.642;7.668;2022-12-04T05:50:59;6.75;;;4.10;;
22421;SDS011;11378;51.642;7.668;2022-12-04T05:53:25;7.80;;;4.32;;
22421;SDS011;11378;51.642;7.668;2022-12-04T05:55:55;6.13;;;4.13;;
22421;SDS011;11378;51.642;7.668;2022-12-04T05:58:22;6.28;;;3.85;;
22421;SDS011;11378;51.642;7.668;2022-12-04T06:00:48;5.25;;;4.10;;
22421;SDS011;11378;51.642;7.668;2022-12-04T06:03:15;6.95;;;4.63;;
22421;SDS011;11378;51.642;7.668;2022-12-04T06:05:41;7.93;;;4.88;;
22421;SDS011;11378;51.642;7.668;2022-12-04T06:08:08;5.97;;;4.25;;
22421;SDS011;11378;51.642;7.668;2022-12-04T06:10:34;5.75;;;4.53;;
22421;SDS011;11378;51.642;7.668;2022-12-04T06:13:00;7.90;;;4.20;;
22421;SDS011;11378;51.642;7.668;2022-12-04T06:15:28;5.75;;;4.13;;
22421;SDS011;11378;51.642;7.668;2022-12-04T06:17:54;6.32;;;4.32;;
22421;SDS011;11378;51.642;7.668;2022-12-04T06:20:21;6.35;;;4.30;;
22421;SDS011;11378;51.642;7.668;2022-12-04T06:22:47;5.68;;;4.00;;
22421;SDS011;11378;51.642;7.668;2022-12-04T06:25:13;5.43;;;4.00;;
22421;SDS011;11378;51.642;7.668;2022-12-04T06:27:40;6.40;;;4.35;;
22421;SDS011;11378;51.642;7.668;2022-12-04T06:30:08;6.40;;;4.60;;
22421;SDS011;11378;51.642;7.668;2022-12-04T06:32:34;4.65;;;3.50;;
22421;SDS011;11378;51.642;7.668;2022-12-04T06:35:00;5.68;;;3.97;;
22421;SDS011;11378;51.642;7.668;2022-12-04T06:37:26;6.28;;;4.03;;
22421;SDS011;11378;51.642;7.668;2022-12-04T06:39:52;5.22;;;3.97;;
22421;SDS011;11378;51.642;7.668;2022-12-04T06:42:18;7.50;;;4.07;;
22421;SDS011;11378;51.642;7.668;2022-12-04T06:44:44;5.40;;;4.05;;
22421;SDS011;11378;51.642;7.668;2022-12-04T06:47:11;5.88;;;4.22;;
22421;SDS011;11378;51.642;7.668;2022-12-04T06:49:37;6.50;;;4.47;;
22421;SDS011;11378;51.642;7.668;2022-12-04T06:52:03;5.72;;;4.22;;
22421;SDS011;11378;51.642;7.668;2022-12-04T06:54:30;5.53;;;4.28;;
22421;SDS011;11378;51.642;7.668;2022-12-04T06:56:56;5.13;;;3.80;;
22421;SDS011;11378;51.642;7.668;2022-12-04T06:59:22;5.70;;;4.20;;
22421;SDS011;11378;51.642;7.668;2022-12-04T07:01:49;6.43;;;4.00;;
22421;SDS011;11378;51.642;7.668;2022-12-04T07:04:15;5.55;;;3.65;;
22421;SDS011;11378;51.642;7.668;2022-12-04T07:06:41;6.68;;;3.83;;
22421;SDS011;11378;51.642;7.668;2022-12-04T07:09:09;5.35;;;3.70;;
22421;SDS011;11378;51.642;7.668;2022-12-04T07:11:36;4.90;;;3.50;;
22421;SDS011;11378;51.642;7.668;2022-12-04T07:14:03;6.15;;;4.38;;
22421;SDS011;11378;51.642;7.668;2022-12-04T07:16:29;4.82;;;3.90;;
22421;SDS011;11378;51.642;7.668;2022-12-04T07:18:56;5.35;;;3.83;;
22421;SDS011;11378;51.642;7.668;2022-12-04T07:21:23;5.63;;;3.70;;
22421;SDS011;11378;51.642;7.668;2022-12-04T07:23:54;6.07;;;4.05;;
22421;SDS011;11378;51.642;7.668;2022-12-04T07:26:20;6.03;;;4.30;;
22421;SDS011;11378;51.642;7.668;2022-12-04T07:28:47;6.43;;;4.07;;
22421;SDS011;11378;51.642;7.668;2022-12-04T07:31:17;5.10;;;3.55;;
22421;SDS011;11378;51.642;7.668;2022-12-04T07:33:44;5.60;;;3.85;;
22421;SDS011;11378;51.642;7.668;2022-12-04T07:36:11;4.88;;;3.50;;
22421;SDS011;11378;51.642;7.668;2022-12-04T07:38:37;5.47;;;4.03;;
22421;SDS011;11378;51.642;7.668;2022-12-04T07:41:04;5.55;;;4.22;;
22421;SDS011;11378;51.642;7.668;2022-12-04T07:43:31;6.82;;;4.13;;
22421;SDS011;11378;51.642;7.668;2022-12-04T07:45:57;5.78;;;4.07;;
22421;SDS011;11378;51.642;7.668;2022-12-04T07:48:24;5.05;;;3.63;;
22421;SDS011;11378;51.642;7.668;2022-12-04T07:50:50;5.45;;;3.92;;
22421;SDS011;11378;51.642;7.668;2022-12-04T07:53:26;5.25;;;3.83;;
22421;SDS011;11378;51.642;7.668;2022-12-04T07:55:52;4.95;;;3.40;;
22421;SDS011;11378;51.642;7.668;2022-12-04T07:58:18;5.78;;;4.32;;
22421;SDS011;11378;51.642;7.668;2022-12-04T08:00:44;4.97;;;3.78;;
22421;SDS011;11378;51.642;7.668;2022-12-04T08:03:10;6.78;;;4.10;;
22421;SDS011;11378;51.642;7.668;2022-12-04T08:05:36;4.57;;;3.58;;
22421;SDS011;11378;51.642;7.668;2022-12-04T08:08:02;6.75;;;4.07;;
22421;SDS011;11378;51.642;7.668;2022-12-04T08:10:29;5.30;;;4.00;;
22421;SDS011;11378;51.642;7.668;2022-12-04T08:12:55;5.43;;;4.15;;
22421;SDS011;11378;51.642;7.668;2022-12-04T08:15:21;7.55;;;4.70;;
22421;SDS011;11378;51.642;7.668;2022-12-04T08:17:48;7.97;;;5.03;;
22421;SDS011;11378;51.642;7.668;2022-12-04T08:20:14;9.30;;;5.75;;
22421;SDS011;11378;51.642;7.668;2022-12-04T08:22:40;9.48;;;6.03;;
22421;SDS011;11378;51.642;7.668;2022-12-04T08:25:07;11.90;;;5.65;;
22421;SDS011;11378;51.642;7.668;2022-12-04T08:27:33;10.05;;;5.82;;
22421;SDS011;11378;51.642;7.668;2022-12-04T08:30:00;8.80;;;5.80;;
22421;SDS011;11378;51.642;7.668;2022-12-04T08:32:26;10.68;;;6.82;;
22421;SDS011;11378;51.642;7.668;2022-12-04T08:34:52;8.85;;;5.78;;
22421;SDS011;11378;51.642;7.668;2022-12-04T08:37:18;11.88;;;6.25;;
22421;SDS011;11378;51.642;7.668;2022-12-04T08:39:45;7.85;;;5.45;;
22421;SDS011;11378;51.642;7.668;2022-12-04T08:42:22;9.38;;;5.95;;
22421;SDS011;11378;51.642;7.668;2022-12-04T08:44:48;8.65;;;5.63;;
22421;SDS011;11378;51.642;7.668;2022-12-04T08:47:14;9.50;;;6.00;;
22421;SDS011;11378;51.642;7.668;2022-12-04T08:49:40;9.27;;;5.78;;
22421;SDS011;11378;51.642;7.668;2022-12-04T08:52:06;9.63;;;5.78;;
22421;SDS011;11378;51.642;7.668;2022-12-04T08:54:32;10.55;;;5.70;;
22421;SDS011;11378;51.642;7.668;2022-12-04T08:56:59;9.75;;;5.28;;
22421;SDS011;11378;51.642;7.668;2022-12-04T08:59:25;13.13;;;6.65;;
22421;SDS011;11378;51.642;7.668;2022-12-04T09:01:52;9.18;;;6.00;;
22421;SDS011;11378;51.642;7.668;2022-12-04T09:04:18;13.35;;;6.55;;
22421;SDS011;11378;51.642;7.668;2022-12-04T09:06:45;11.52;;;7.18;;
22421;SDS011;11378;51.642;7.668;2022-12-04T09:09:11;11.75;;;6.40;;
22421;SDS011;11378;51.642;7.668;2022-12-04T09:11:38;9.27;;;5.88;;
22421;SDS011;11378;51.642;7.668;2022-12-04T09:14:04;11.07;;;6.15;;
22421;SDS011;11378;51.642;7.668;2022-12-04T09:16:30;10.18;;;6.00;;
22421;SDS011;11378;51.642;7.668;2022-12-04T09:18:57;12.23;;;5.80;;
22421;SDS011;11378;51.642;7.668;2022-12-04T09:21:23;14.63;;;5.80;;
22421;SDS011;11378;51.642;7.668;2022-12-04T09:23:50;10.05;;;5.10;;
22421;SDS011;11378;51.642;7.668;2022-12-04T09:26:21;9.35;;;5.78;;
22421;SDS011;11378;51.642;7.668;2022-12-04T09:28:48;8.25;;;5.75;;
22421;SDS011;11378;51.642;7.668;2022-12-04T09:31:14;9.38;;;6.45;;
22421;SDS011;11378;51.642;7.668;2022-12-04T09:33:41;8.52;;;5.55;;
22421;SDS011;11378;51.642;7.668;2022-12-04T09:36:08;8.48;;;5.70;;
22421;SDS011;11378;51.642;7.668;2022-12-04T09:38:40;7.75;;;5.32;;
22421;SDS011;11378;51.642;7.668;2022-12-04T09:43:46;8.32;;;5.25;;
22421;SDS011;11378;51.642;7.668;2022-12-04T09:46:34;8.10;;;5.65;;
22421;SDS011;11378;51.642;7.668;2022-12-04T09:49:02;6.97;;;5.22;;
22421;SDS011;11378;51.642;7.668;2022-12-04T09:51:29;8.55;;;5.75;;
22421;SDS011;11378;51.642;7.668;2022-12-04T09:54:08;8.93;;;5.53;;
22421;SDS011;11378;51.642;7.668;2022-12-04T09:56:36;9.30;;;5.63;;
22421;SDS011;11378;51.642;7.668;2022-12-04T09:59:21;6.90;;;5.10;;
22421;SDS011;11378;51.642;7.668;2022-12-04T10:01:50;7.50;;;5.20;;
22421;SDS011;11378;51.642;7.668;2022-12-04T10:04:19;9.05;;;5.88;;
22421;SDS011;11378;51.642;7.668;2022-12-04T10:07:03;8.30;;;5.47;;
22421;SDS011;11378;51.642;7.668;2022-12-04T10:09:36;8.40;;;5.28;;
22421;SDS011;11378;51.642;7.668;2022-12-04T10:12:16;8.77;;;5.30;;
22421;SDS011;11378;51.642;7.668;2022-12-04T10:27:17;6.57;;;4.93;;
22421;SDS011;11378;51.642;7.668;2022-12-04T10:34:43;7.40;;;4.65;;
22421;SDS011;11378;51.642;7.668;2022-12-04T10:37:13;7.10;;;4.68;;
22421;SDS011;11378;51.642;7.668;2022-12-04T10:45:05;6.97;;;4.88;;
22421;SDS011;11378;51.642;7.668;2022-12-04T10:47:31;6.70;;;4.50;;
22421;SDS011;11378;51.642;7.668;2022-12-04T10:49:59;6.55;;;4.80;;
22421;SDS011;11378;51.642;7.668;2022-12-04T10:52:30;6.93;;;5.07;;
22421;SDS011;11378;51.642;7.668;2022-12-04T10:54:58;6.57;;;4.78;;
22421;SDS011;11378;51.642;7.668;2022-12-04T10:57:40;7.10;;;4.63;;
22421;SDS011;11378;51.642;7.668;2022-12-04T11:02:50;8.55;;;4.88;;
22421;SDS011;11378;51.642;7.668;2022-12-04T11:05:22;10.00;;;5.45;;
22421;SDS011;11378;51.642;7.668;2022-12-04T11:07:49;11.05;;;6.45;;
22421;SDS011;11378;51.642;7.668;2022-12-04T11:10:19;19.77;;;7.38;;
22421;SDS011;11378;51.642;7.668;2022-12-04T11:12:54;15.40;;;7.40;;
22421;SDS011;11378;51.642;7.668;2022-12-04T11:15:20;11.13;;;6.88;;
22421;SDS011;11378;51.642;7.668;2022-12-04T11:17:47;9.35;;;5.78;;
22421;SDS011;11378;51.642;7.668;2022-12-04T11:20:18;9.82;;;6.25;;
22421;SDS011;11378;51.642;7.668;2022-12-04T11:22:47;10.88;;;5.93;;
22421;SDS011;11378;51.642;7.668;2022-12-04T11:25:15;9.57;;;6.43;;
22421;SDS011;11378;51.642;7.668;2022-12-04T11:27:48;11.23;;;6.17;;
22421;SDS011;11378;51.642;7.668;2022-12-04T11:30:18;9.50;;;5.93;;
22421;SDS011;11378;51.642;7.668;2022-12-04T11:32:45;10.55;;;6.03;;
22421;SDS011;11378;51.642;7.668;2022-12-04T11:35:30;9.57;;;5.90;;
22421;SDS011;11378;51.642;7.668;2022-12-04T11:37:58;9.10;;;5.50;;
22421;SDS011;11378;51.642;7.668;2022-12-04T11:40:27;10.07;;;5.93;;
22421;SDS011;11378;51.642;7.668;2022-12-04T11:42:57;13.13;;;5.75;;
22421;SDS011;11378;51.642;7.668;2022-12-04T11:45:24;7.93;;;5.53;;
22421;SDS011;11378;51.642;7.668;2022-12-04T11:47:52;37.70;;;6.20;;
22421;SDS011;11378;51.642;7.668;2022-12-04T11:55:24;16.90;;;5.60;;
22421;SDS011;11378;51.642;7.668;2022-12-04T12:00:38;11.82;;;5.30;;
22421;SDS011;11378;51.642;7.668;2022-12-04T12:03:15;12.35;;;6.00;;
22421;SDS011;11378;51.642;7.668;2022-12-04T12:08:24;11.52;;;5.97;;
22421;SDS011;11378;51.642;7.668;2022-12-04T12:21:41;9.30;;;5.13;;
22421;SDS011;11378;51.642;7.668;2022-12-04T12:23:54;9.97;;;5.23;;
22421;SDS011;11378;51.642;7.668;2022-12-04T12:26:23;7.35;;;5.20;;
22421;SDS011;11378;51.642;7.668;2022-12-04T12:29:13;9.00;;;5.35;;
22421;SDS011;11378;51.642;7.668;2022-12-04T12:31:53;7.82;;;4.93;;
22421;SDS011;11378;51.642;7.668;2022-12-04T12:36:50;7.38;;;5.10;;
22421;SDS011;11378;51.642;7.668;2022-12-04T12:39:19;8.75;;;5.40;;
22421;SDS011;11378;51.642;7.668;2022-12-04T12:41:54;5.47;;;3.63;;
22421;SDS011;11378;51.642;7.668;2022-12-04T12:44:38;7.43;;;4.68;;
22421;SDS011;11378;51.642;7.668;2022-12-04T12:47:12;7.45;;;5.28;;
22421;SDS011;11378;51.642;7.668;2022-12-04T12:49:48;7.80;;;5.15;;
22421;SDS011;11378;51.642;7.668;2022-12-04T12:59:53;8.90;;;4.78;;
22421;SDS011;11378;51.642;7.668;2022-12-04T13:02:22;11.45;;;5.28;;
22421;SDS011;11378;51.642;7.668;2022-12-04T13:04:51;8.07;;;4.97;;
22421;SDS011;11378;51.642;7.668;2022-12-04T13:09:47;6.28;;;4.40;;
22421;SDS011;11378;51.642;7.668;2022-12-04T13:12:15;9.32;;;4.78;;
22421;SDS011;11378;51.642;7.668;2022-12-04T13:14:43;15.60;;;4.93;;
22421;SDS011;11378;51.642;7.668;2022-12-04T13:19:55;9.27;;;4.68;;
22421;SDS011;11378;51.642;7.668;2022-12-04T13:35:09;8.73;;;4.75;;
22421;SDS011;11378;51.642;7.668;2022-12-04T13:43:12;8.43;;;4.80;;
22421;SDS011;11378;51.642;7.668;2022-12-04T13:45:39;7.13;;;4.38;;
22421;SDS011;11378;51.642;7.668;2022-12-04T13:48:05;7.10;;;5.13;;
22421;SDS011;11378;51.642;7.668;2022-12-04T13:50:33;6.88;;;4.65;;
22421;SDS011;11378;51.642;7.668;2022-12-04T13:52:59;7.57;;;4.35;;
22421;SDS011;11378;51.642;7.668;2022-12-04T13:55:35;10.48;;;4.70;;
22421;SDS011;11378;51.642;7.668;2022-12-04T14:00:35;8.75;;;4.93;;
22421;SDS011;11378;51.642;7.668;2022-12-04T14:03:05;11.00;;;4.40;;
22421;SDS011;11378;51.642;7.668;2022-12-04T14:05:39;8.30;;;4.20;;
22421;SDS011;11378;51.642;7.668;2022-12-04T14:08:17;9.57;;;4.70;;
22421;SDS011;11378;51.642;7.668;2022-12-04T14:10:59;5.47;;;3.97;;
22421;SDS011;11378;51.642;7.668;2022-12-04T14:13:28;7.50;;;3.88;;
22421;SDS011;11378;51.642;7.668;2022-12-04T14:16:03;8.50;;;4.35;;
22421;SDS011;11378;51.642;7.668;2022-12-04T14:18:31;6.22;;;4.40;;
22421;SDS011;11378;51.642;7.668;2022-12-04T14:21:02;6.00;;;4.07;;
22421;SDS011;11378;51.642;7.668;2022-12-04T14:23:34;6.10;;;3.97;;
22421;SDS011;11378;51.642;7.668;2022-12-04T14:26:00;11.02;;;4.15;;
22421;SDS011;11378;51.642;7.668;2022-12-04T14:33:28;7.97;;;4.70;;
22421;SDS011;11378;51.642;7.668;2022-12-04T14:36:10;8.10;;;4.53;;
22421;SDS011;11378;51.642;7.668;2022-12-04T14:38:42;8.90;;;4.68;;
22421;SDS011;11378;51.642;7.668;2022-12-04T14:41:09;8.63;;;4.70;;
22421;SDS011;11378;51.642;7.668;2022-12-04T14:43:39;6.40;;;4.30;;
22421;SDS011;11378;51.642;7.668;2022-12-04T14:46:14;8.25;;;4.78;;
22421;SDS011;11378;51.642;7.668;2022-12-04T14:48:47;12.80;;;5.50;;
22421;SDS011;11378;51.642;7.668;2022-12-04T14:58:54;11.05;;;4.68;;
22421;SDS011;11378;51.642;7.668;2022-12-04T15:01:28;7.50;;;5.07;;
22421;SDS011;11378;51.642;7.668;2022-12-04T15:04:00;6.78;;;4.65;;
22421;SDS011;11378;51.642;7.668;2022-12-04T15:06:31;6.53;;;4.40;;
22421;SDS011;11378;51.642;7.668;2022-12-04T15:08:59;9.73;;;5.03;;
22421;SDS011;11378;51.642;7.668;2022-12-04T15:11:45;6.93;;;4.55;;
22421;SDS011;11378;51.642;7.668;2022-12-04T15:15:07;7.88;;;4.88;;
22421;SDS011;11378;51.642;7.668;2022-12-04T15:17:24;5.72;;;4.28;;
22421;SDS011;11378;51.642;7.668;2022-12-04T15:19:50;6.65;;;4.55;;
22421;SDS011;11378;51.642;7.668;2022-12-04T15:22:21;6.07;;;4.13;;
22421;SDS011;11378;51.642;7.668;2022-12-04T15:24:48;7.70;;;4.38;;
22421;SDS011;11378;51.642;7.668;2022-12-04T15:27:15;5.50;;;4.07;;
22421;SDS011;11378;51.642;7.668;2022-12-04T15:29:44;8.43;;;5.32;;
22421;SDS011;11378;51.642;7.668;2022-12-04T15:32:14;6.43;;;4.38;;
22421;SDS011;11378;51.642;7.668;2022-12-04T15:35:02;8.13;;;5.35;;
22421;SDS011;11378;51.642;7.668;2022-12-04T15:37:28;9.20;;;5.25;;
22421;SDS011;11378;51.642;7.668;2022-12-04T15:39:56;6.82;;;4.72;;
22421;SDS011;11378;51.642;7.668;2022-12-04T15:47:18;7.65;;;4.75;;
22421;SDS011;11378;51.642;7.668;2022-12-04T15:49:44;9.07;;;5.25;;
22421;SDS011;11378;51.642;7.668;2022-12-04T15:52:15;7.15;;;5.07;;
22421;SDS011;11378;51.642;7.668;2022-12-04T15:54:42;6.57;;;4.60;;
22421;SDS011;11378;51.642;7.668;2022-12-04T15:57:15;6.97;;;4.57;;
22421;SDS011;11378;51.642;7.668;2022-12-04T15:59:46;8.00;;;5.07;;
22421;SDS011;11378;51.642;7.668;2022-12-04T16:05:09;6.85;;;5.07;;
22421;SDS011;11378;51.642;7.668;2022-12-04T16:07:36;7.45;;;4.53;;
22421;SDS011;11378;51.642;7.668;2022-12-04T16:10:22;6.95;;;4.47;;
22421;SDS011;11378;51.642;7.668;2022-12-04T16:12:52;8.45;;;5.45;;
22421;SDS011;11378;51.642;7.668;2022-12-04T16:15:20;9.65;;;5.72;;
22421;SDS011;11378;51.642;7.668;2022-12-04T16:17:46;9.65;;;5.13;;
22421;SDS011;11378;51.642;7.668;2022-12-04T16:20:13;8.70;;;5.00;;
22421;SDS011;11378;51.642;7.668;2022-12-04T16:22:40;7.65;;;5.07;;
22421;SDS011;11378;51.642;7.668;2022-12-04T16:25:10;9.63;;;5.50;;
22421;SDS011;11378;51.642;7.668;2022-12-04T16:27:37;8.60;;;5.45;;
22421;SDS011;11378;51.642;7.668;2022-12-04T16:30:03;8.02;;;5.35;;
22421;SDS011;11378;51.642;7.668;2022-12-04T16:32:31;8.15;;;5.43;;
22421;SDS011;11378;51.642;7.668;2022-12-04T16:34:58;6.85;;;5.18;;
22421;SDS011;11378;51.642;7.668;2022-12-04T16:37:25;9.20;;;5.55;;
22421;SDS011;11378;51.642;7.668;2022-12-04T16:39:51;7.63;;;4.70;;
22421;SDS011;11378;51.642;7.668;2022-12-04T16:42:19;9.25;;;4.97;;
22421;SDS011;11378;51.642;7.668;2022-12-04T16:44:46;7.57;;;5.07;;
22421;SDS011;11378;51.642;7.668;2022-12-04T16:47:12;7.32;;;4.78;;
22421;SDS011;11378;51.642;7.668;2022-12-04T16:49:39;8.38;;;5.18;;
22421;SDS011;11378;51.642;7.668;2022-12-04T16:52:06;8.02;;;5.07;;
22421;SDS011;11378;51.642;7.668;2022-12-04T16:54:32;8.00;;;5.32;;
22421;SDS011;11378;51.642;7.668;2022-12-04T16:56:59;10.15;;;6.25;;
22421;SDS011;11378;51.642;7.668;2022-12-04T16:59:25;9.27;;;6.22;;
22421;SDS011;11378;51.642;7.668;2022-12-04T17:01:51;12.02;;;6.63;;
22421;SDS011;11378;51.642;7.668;2022-12-04T17:04:18;10.50;;;6.55;;
22421;SDS011;11378;51.642;7.668;2022-12-04T17:06:44;10.77;;;6.20;;
22421;SDS011;11378;51.642;7.668;2022-12-04T17:09:11;12.05;;;6.40;;
22421;SDS011;11378;51.642;7.668;2022-12-04T17:11:38;9.65;;;6.47;;
22421;SDS011;11378;51.642;7.668;2022-12-04T17:14:04;9.98;;;6.07;;
22421;SDS011;11378;51.642;7.668;2022-12-04T17:16:33;9.85;;;6.13;;
22421;SDS011;11378;51.642;7.668;2022-12-04T17:19:00;9.40;;;5.53;;